sensor_id;sensor_type;location;lat;lon;timestamp;pressure;altitude;pressure_sealevel;temperature;humidity
65800;BME280;52544;48.116;11.660;2024-01-25T00:01:19;96564.31;;;7.81;100.00
65800;BME280;52544;48.116;11.660;2024-01-25T00:03:44;96565.34;;;7.78;100.00
65800;BME280;52544;48.116;11.660;2024-01-25T00:06:09;96574.09;;;7.79;100.00
65800;BME280;52544;48.116;11.660;2024-01-25T00:08:35;96562.44;;;7.83;100.00
65800;BME280;52544;48.116;11.660;2024-01-25T00:11:04;96564.50;;;7.78;100.00
65800;BME280;52544;48.116;11.660;2024-01-25T00:13:29;96561.78;;;7.79;100.00
65800;BME280;52544;48.116;11.660;2024-01-25T00:15:55;96565.25;;;7.80;100.00
65800;BME280;52544;48.116;11.660;2024-01-25T00:18:20;96576.75;;;7.79;100.00
65800;BME280;52544;48.116;11.660;2024-01-25T00:20:46;96576.75;;;7.79;100.00
65800;BME280;52544;48.116;11.660;2024-01-25T00:23:11;96576.75;;;7.79;100.00
65800;BME280;52544;48.116;11.660;2024-01-25T00:25:37;96582.84;;;7.79;100.00
65800;BME280;52544;48.116;11.660;2024-01-25T00:28:02;96574.19;;;7.77;100.00
65800;BME280;52544;48.116;11.660;2024-01-25T00:30:28;96573.16;;;7.80;100.00
65800;BME280;52544;48.116;11.660;2024-01-25T00:32:54;96584.47;;;7.82;100.00
65800;BME280;52544;48.116;11.660;2024-01-25T00:35:19;96578.25;;;7.83;100.00
65800;BME280;52544;48.116;11.660;2024-01-25T00:37:45;96579.22;;;7.82;100.00
65800;BME280;52544;48.116;11.660;2024-01-25T00:40:11;96575.91;;;7.78;100.00
65800;BME280;52544;48.116;11.660;2024-01-25T00:42:43;96585.22;;;7.84;100.00
65800;BME280;52544;48.116;11.660;2024-01-25T00:45:10;96579.78;;;7.87;100.00
65800;BME280;52544;48.116;11.660;2024-01-25T00:47:36;96571.59;;;7.91;100.00
65800;BME280;52544;48.116;11.660;2024-01-25T00:50:01;96574.31;;;7.90;100.00
65800;BME280;52544;48.116;11.660;2024-01-25T00:52:27;96574.31;;;7.90;100.00
65800;BME280;52544;48.116;11.660;2024-01-25T00:54:53;96563.69;;;7.91;100.00
65800;BME280;52544;48.116;11.660;2024-01-25T00:57:19;96561.91;;;7.92;100.00
65800;BME280;52544;48.116;11.660;2024-01-25T00:59:44;96571.31;;;7.96;100.00
65800;BME280;52544;48.116;11.660;2024-01-25T01:02:11;96577.34;;;7.98;100.00
65800;BME280;52544;48.116;11.660;2024-01-25T01:04:37;96586.19;;;7.97;100.00
65800;BME280;52544;48.116;11.660;2024-01-25T01:07:03;96583.28;;;8.01;100.00
65800;BME280;52544;48.116;11.660;2024-01-25T01:09:29;96593.75;;;8.03;100.00
65800;BME280;52544;48.116;11.660;2024-01-25T01:11:54;96590.91;;;8.06;100.00
65800;BME280;52544;48.116;11.660;2024-01-25T01:14:20;96595.44;;;8.04;100.00
65800;BME280;52544;48.116;11.660;2024-01-25T01:16:45;96599.78;;;8.05;100.00
65800;BME280;52544;48.116;11.660;2024-01-25T01:19:11;96611.66;;;8.12;100.00
65800;BME280;52544;48.116;11.660;2024-01-25T01:21:36;96604.09;;;8.06;100.00
65800;BME280;52544;48.116;11.660;2024-01-25T01:24:02;96607.59;;;8.07;100.00
65800;BME280;52544;48.116;11.660;2024-01-25T01:26:27;96610.31;;;8.05;100.00
65800;BME280;52544;48.116;11.660;2024-01-25T01:28:53;96619.00;;;8.07;100.00
65800;BME280;52544;48.116;11.660;2024-01-25T01:31:18;96606.66;;;8.08;100.00
65800;BME280;52544;48.116;11.660;2024-01-25T01:33:44;96606.94;;;8.03;100.00
65800;BME280;52544;48.116;11.660;2024-01-25T01:36:09;96614.06;;;8.01;100.00
65800;BME280;52544;48.116;11.660;2024-01-25T01:38:34;96599.19;;;8.00;100.00
65800;BME280;52544;48.116;11.660;2024-01-25T01:41:00;96593.66;;;8.05;100.00
65800;BME280;52544;48.116;11.660;2024-01-25T01:43:25;96586.97;;;7.99;100.00
65800;BME280;52544;48.116;11.660;2024-01-25T01:45:51;96590.53;;;7.98;100.00
65800;BME280;52544;48.116;11.660;2024-01-25T01:48:16;96584.41;;;7.97;100.00
65800;BME280;52544;48.116;11.660;2024-01-25T01:50:45;96590.53;;;7.98;100.00
65800;BME280;52544;48.116;11.660;2024-01-25T01:53:11;96585.75;;;8.05;100.00
65800;BME280;52544;48.116;11.660;2024-01-25T01:55:37;96587.03;;;7.97;100.00
65800;BME280;52544;48.116;11.660;2024-01-25T01:58:05;96592.25;;;7.99;100.00
65800;BME280;52544;48.116;11.660;2024-01-25T02:00:30;96600.22;;;7.97;100.00
65800;BME280;52544;48.116;11.660;2024-01-25T02:02:56;96594.00;;;7.98;100.00
65800;BME280;52544;48.116;11.660;2024-01-25T02:05:24;96592.41;;;7.96;100.00
65800;BME280;52544;48.116;11.660;2024-01-25T02:07:49;96597.41;;;8.00;100.00
65800;BME280;52544;48.116;11.660;2024-01-25T02:10:17;96596.75;;;7.97;100.00
65800;BME280;52544;48.116;11.660;2024-01-25T02:12:42;96589.78;;;7.96;100.00
65800;BME280;52544;48.116;11.660;2024-01-25T02:15:08;96578.66;;;7.91;100.00
65800;BME280;52544;48.116;11.660;2024-01-25T02:17:33;96577.53;;;7.95;100.00
65800;BME280;52544;48.116;11.660;2024-01-25T02:19:59;96565.47;;;7.91;100.00
65800;BME280;52544;48.116;11.660;2024-01-25T02:22:25;96569.25;;;7.87;100.00
65800;BME280;52544;48.116;11.660;2024-01-25T02:24:51;96576.78;;;7.93;100.00
65800;BME280;52544;48.116;11.660;2024-01-25T02:27:16;96574.31;;;7.90;100.00
65800;BME280;52544;48.116;11.660;2024-01-25T02:29:42;96570.94;;;7.88;100.00
65800;BME280;52544;48.116;11.660;2024-01-25T02:32:07;96575.44;;;7.86;100.00
65800;BME280;52544;48.116;11.660;2024-01-25T02:34:32;96565.84;;;7.85;100.00
65800;BME280;52544;48.116;11.660;2024-01-25T02:36:58;96574.78;;;7.82;100.00
65800;BME280;52544;48.116;11.660;2024-01-25T02:39:23;96572.88;;;7.84;100.00
65800;BME280;52544;48.116;11.660;2024-01-25T02:41:49;96566.94;;;7.81;100.00
65800;BME280;52544;48.116;11.660;2024-01-25T02:44:15;96561.50;;;7.84;100.00
65800;BME280;52544;48.116;11.660;2024-01-25T02:46:40;96552.75;;;7.83;100.00
65800;BME280;52544;48.116;11.660;2024-01-25T02:49:06;96556.59;;;7.78;100.00
65800;BME280;52544;48.116;11.660;2024-01-25T02:51:31;96558.31;;;7.79;100.00
65800;BME280;52544;48.116;11.660;2024-01-25T02:53:56;96559.88;;;7.81;100.00
65800;BME280;52544;48.116;11.660;2024-01-25T02:56:22;96559.81;;;7.83;100.00
65800;BME280;52544;48.116;11.660;2024-01-25T02:58:47;96567.91;;;7.80;100.00
65800;BME280;52544;48.116;11.660;2024-01-25T03:01:13;96567.78;;;7.81;100.00
65800;BME280;52544;48.116;11.660;2024-01-25T03:03:38;96548.31;;;7.84;100.00
65800;BME280;52544;48.116;11.660;2024-01-25T03:06:05;96559.72;;;7.84;100.00
65800;BME280;52544;48.116;11.660;2024-01-25T03:08:31;96565.84;;;7.85;100.00
65800;BME280;52544;48.116;11.660;2024-01-25T03:10:56;96564.25;;;7.82;100.00
65800;BME280;52544;48.116;11.660;2024-01-25T03:13:22;96564.88;;;7.86;100.00
65800;BME280;52544;48.116;11.660;2024-01-25T03:15:47;96549.16;;;7.84;100.00
65800;BME280;52544;48.116;11.660;2024-01-25T03:18:13;96564.97;;;7.84;100.00
65800;BME280;52544;48.116;11.660;2024-01-25T03:20:38;96545.03;;;7.80;100.00
65800;BME280;52544;48.116;11.660;2024-01-25T03:23:03;96543.06;;;7.84;100.00
65800;BME280;52544;48.116;11.660;2024-01-25T03:25:29;96544.94;;;7.82;100.00
65800;BME280;52544;48.116;11.660;2024-01-25T03:27:55;96528.25;;;7.81;100.00
65800;BME280;52544;48.116;11.660;2024-01-25T03:30:21;96517.09;;;7.78;100.00
65800;BME280;52544;48.116;11.660;2024-01-25T03:32:46;96529.13;;;7.82;100.00
65800;BME280;52544;48.116;11.660;2024-01-25T03:35:12;96537.78;;;7.84;100.00
65800;BME280;52544;48.116;11.660;2024-01-25T03:37:37;96522.25;;;7.79;100.00
65800;BME280;52544;48.116;11.660;2024-01-25T03:40:03;96519.78;;;7.76;100.00
65800;BME280;52544;48.116;11.660;2024-01-25T03:42:28;96529.31;;;7.79;100.00
65800;BME280;52544;48.116;11.660;2024-01-25T03:44:54;96539.84;;;7.79;100.00
65800;BME280;52544;48.116;11.660;2024-01-25T03:47:19;96533.81;;;7.76;100.00
65800;BME280;52544;48.116;11.660;2024-01-25T03:49:45;96535.53;;;7.78;100.00
65800;BME280;52544;48.116;11.660;2024-01-25T03:52:10;96526.00;;;7.75;100.00
65800;BME280;52544;48.116;11.660;2024-01-25T03:54:35;96527.78;;;7.74;100.00
65800;BME280;52544;48.116;11.660;2024-01-25T03:57:01;96530.69;;;7.70;100.00
65800;BME280;52544;48.116;11.660;2024-01-25T03:59:26;96530.03;;;7.66;100.00
65800;BME280;52544;48.116;11.660;2024-01-25T04:01:52;96544.16;;;7.65;100.00
65800;BME280;52544;48.116;11.660;2024-01-25T04:04:17;96545.84;;;7.66;100.00
65800;BME280;52544;48.116;11.660;2024-01-25T04:06:43;96543.94;;;7.68;100.00
65800;BME280;52544;48.116;11.660;2024-01-25T04:09:10;96551.22;;;7.65;100.00
65800;BME280;52544;48.116;11.660;2024-01-25T04:11:37;96557.31;;;7.65;100.00
65800;BME280;52544;48.116;11.660;2024-01-25T04:14:03;96556.22;;;7.69;100.00
65800;BME280;52544;48.116;11.660;2024-01-25T04:16:29;96557.31;;;7.65;100.00
65800;BME280;52544;48.116;11.660;2024-01-25T04:18:54;96563.34;;;7.67;100.00
65800;BME280;52544;48.116;11.660;2024-01-25T04:21:19;96568.53;;;7.69;100.00
65800;BME280;52544;48.116;11.660;2024-01-25T04:23:45;96570.28;;;7.68;100.00
65800;BME280;52544;48.116;11.660;2024-01-25T04:26:10;96588.94;;;7.65;100.00
65800;BME280;52544;48.116;11.660;2024-01-25T04:28:36;96594.00;;;7.68;100.00
65800;BME280;52544;48.116;11.660;2024-01-25T04:31:02;96594.78;;;7.70;100.00
65800;BME280;52544;48.116;11.660;2024-01-25T04:33:29;96598.16;;;7.72;100.00
65800;BME280;52544;48.116;11.660;2024-01-25T04:35:54;96603.44;;;7.72;100.00
65800;BME280;52544;48.116;11.660;2024-01-25T04:38:20;96605.16;;;7.73;100.00
65800;BME280;52544;48.116;11.660;2024-01-25T04:40:45;96600.22;;;7.67;100.00
65800;BME280;52544;48.116;11.660;2024-01-25T04:43:11;96609.91;;;7.67;100.00
65800;BME280;52544;48.116;11.660;2024-01-25T04:45:36;96607.56;;;7.62;100.00
65800;BME280;52544;48.116;11.660;2024-01-25T04:48:02;96603.97;;;7.63;100.00
65800;BME280;52544;48.116;11.660;2024-01-25T04:50:27;96617.06;;;7.65;100.00
65800;BME280;52544;48.116;11.660;2024-01-25T04:52:53;96613.75;;;7.61;100.00
65800;BME280;52544;48.116;11.660;2024-01-25T04:55:18;96619.78;;;7.63;100.00
65800;BME280;52544;48.116;11.660;2024-01-25T04:57:45;96620.81;;;7.61;100.00
65800;BME280;52544;48.116;11.660;2024-01-25T05:00:11;96623.34;;;7.62;100.00
65800;BME280;52544;48.116;11.660;2024-01-25T05:02:36;96622.94;;;7.54;100.00
65800;BME280;52544;48.116;11.660;2024-01-25T05:05:02;96623.72;;;7.56;100.00
65800;BME280;52544;48.116;11.660;2024-01-25T05:07:27;96620.31;;;7.54;100.00
65800;BME280;52544;48.116;11.660;2024-01-25T05:09:53;96622.84;;;7.56;100.00
65800;BME280;52544;48.116;11.660;2024-01-25T05:12:18;96623.03;;;7.53;100.00
65800;BME280;52544;48.116;11.660;2024-01-25T05:14:44;96625.94;;;7.48;100.00
65800;BME280;52544;48.116;11.660;2024-01-25T05:17:09;96625.94;;;7.48;100.00
65800;BME280;52544;48.116;11.660;2024-01-25T05:19:35;96639.09;;;7.48;100.00
65800;BME280;52544;48.116;11.660;2024-01-25T05:22:00;96641.75;;;7.48;100.00
65800;BME280;52544;48.116;11.660;2024-01-25T05:24:26;96645.47;;;7.44;100.00
65800;BME280;52544;48.116;11.660;2024-01-25T05:26:52;96648.88;;;7.46;100.00
65800;BME280;52544;48.116;11.660;2024-01-25T05:29:17;96655.91;;;7.45;100.00
65800;BME280;52544;48.116;11.660;2024-01-25T05:31:43;96654.28;;;7.43;100.00
65800;BME280;52544;48.116;11.660;2024-01-25T05:34:08;96655.19;;;7.43;100.00
65800;BME280;52544;48.116;11.660;2024-01-25T05:36:33;96657.53;;;7.48;100.00
65800;BME280;52544;48.116;11.660;2024-01-25T05:38:59;96649.72;;;7.46;100.00
65800;BME280;52544;48.116;11.660;2024-01-25T05:41:24;96641.81;;;7.46;100.00
65800;BME280;52544;48.116;11.660;2024-01-25T05:43:50;96647.19;;;7.45;100.00
65800;BME280;52544;48.116;11.660;2024-01-25T05:46:15;96648.13;;;7.44;100.00
65800;BME280;52544;48.116;11.660;2024-01-25T05:48:40;96654.41;;;7.41;100.00
65800;BME280;52544;48.116;11.660;2024-01-25T05:51:06;96655.19;;;7.43;100.00
65800;BME280;52544;48.116;11.660;2024-01-25T05:53:31;96665.88;;;7.40;100.00
65800;BME280;52544;48.116;11.660;2024-01-25T05:55:57;96668.16;;;7.46;100.00
65800;BME280;52544;48.116;11.660;2024-01-25T05:58:22;96676.31;;;7.42;100.00
65800;BME280;52544;48.116;11.660;2024-01-25T06:00:48;96680.03;;;7.38;100.00
65800;BME280;52544;48.116;11.660;2024-01-25T06:03:13;96688.63;;;7.41;100.00
65800;BME280;52544;48.116;11.660;2024-01-25T06:05:39;96683.47;;;7.40;100.00
65800;BME280;52544;48.116;11.660;2024-01-25T06:08:04;96684.56;;;7.36;100.00
65800;BME280;52544;48.116;11.660;2024-01-25T06:10:29;96686.16;;;7.38;100.00
65800;BME280;52544;48.116;11.660;2024-01-25T06:12:55;96694.16;;;7.37;100.00
65800;BME280;52544;48.116;11.660;2024-01-25T06:15:20;96696.19;;;7.32;100.00
65800;BME280;52544;48.116;11.660;2024-01-25T06:17:46;96691.94;;;7.29;100.00
65800;BME280;52544;48.116;11.660;2024-01-25T06:20:12;96702.56;;;7.28;100.00
65800;BME280;52544;48.116;11.660;2024-01-25T06:22:37;96705.19;;;7.28;100.00
65800;BME280;52544;48.116;11.660;2024-01-25T06:25:03;96705.34;;;7.24;100.00
65800;BME280;52544;48.116;11.660;2024-01-25T06:27:32;96714.50;;;7.17;100.00
65800;BME280;52544;48.116;11.660;2024-01-25T06:29:57;96715.97;;;7.23;100.00
65800;BME280;52544;48.116;11.660;2024-01-25T06:32:23;96723.94;;;7.21;100.00
65800;BME280;52544;48.116;11.660;2024-01-25T06:34:48;96725.56;;;7.24;100.00
65800;BME280;52544;48.116;11.660;2024-01-25T06:37:14;96736.00;;;7.25;100.00
65800;BME280;52544;48.116;11.660;2024-01-25T06:39:41;96739.44;;;7.28;100.00
65800;BME280;52544;48.116;11.660;2024-01-25T06:42:06;96743.47;;;7.17;100.00
65800;BME280;52544;48.116;11.660;2024-01-25T06:44:32;96752.56;;;7.12;100.00
65800;BME280;52544;48.116;11.660;2024-01-25T06:46:57;96757.72;;;7.13;100.00
65800;BME280;52544;48.116;11.660;2024-01-25T06:49:23;96760.44;;;7.12;100.00
65800;BME280;52544;48.116;11.660;2024-01-25T06:51:48;96761.78;;;7.03;100.00
65800;BME280;52544;48.116;11.660;2024-01-25T06:54:13;96763.66;;;7.01;100.00
65800;BME280;52544;48.116;11.660;2024-01-25T06:56:39;96762.78;;;7.00;100.00
65800;BME280;52544;48.116;11.660;2024-01-25T06:59:04;96771.47;;;7.03;100.00
65800;BME280;52544;48.116;11.660;2024-01-25T07:01:30;96764.91;;;6.94;100.00
65800;BME280;52544;48.116;11.660;2024-01-25T07:03:55;96765.84;;;6.93;100.00
65800;BME280;52544;48.116;11.660;2024-01-25T07:06:21;96775.69;;;6.89;100.00
65800;BME280;52544;48.116;11.660;2024-01-25T07:08:46;96773.03;;;6.89;100.00
65800;BME280;52544;48.116;11.660;2024-01-25T07:11:12;96771.75;;;6.81;100.00
65800;BME280;52544;48.116;11.660;2024-01-25T07:13:37;96779.03;;;6.75;100.00
65800;BME280;52544;48.116;11.660;2024-01-25T07:16:03;96786.75;;;6.79;100.00
65800;BME280;52544;48.116;11.660;2024-01-25T07:18:29;96788.66;;;6.75;100.00
65800;BME280;52544;48.116;11.660;2024-01-25T07:20:54;96795.44;;;6.81;100.00
65800;BME280;52544;48.116;11.660;2024-01-25T07:23:21;96799.75;;;6.82;100.00
65800;BME280;52544;48.116;11.660;2024-01-25T07:25:46;96798.75;;;6.84;100.00
65800;BME280;52544;48.116;11.660;2024-01-25T07:28:12;96798.06;;;6.81;100.00
65800;BME280;52544;48.116;11.660;2024-01-25T07:30:37;96803.13;;;6.84;100.00
65800;BME280;52544;48.116;11.660;2024-01-25T07:33:03;96802.22;;;6.85;100.00
65800;BME280;52544;48.116;11.660;2024-01-25T07:35:28;96810.88;;;6.87;100.00
65800;BME280;52544;48.116;11.660;2024-01-25T07:37:53;96814.91;;;6.94;100.00
65800;BME280;52544;48.116;11.660;2024-01-25T07:40:19;96813.03;;;6.96;100.00
65800;BME280;52544;48.116;11.660;2024-01-25T07:42:46;96821.88;;;6.95;100.00
65800;BME280;52544;48.116;11.660;2024-01-25T07:45:12;96829.53;;;6.99;100.00
65800;BME280;52544;48.116;11.660;2024-01-25T07:47:41;96826.28;;;6.94;100.00
65800;BME280;52544;48.116;11.660;2024-01-25T07:50:06;96834.41;;;6.90;100.00
65800;BME280;52544;48.116;11.660;2024-01-25T07:52:32;96829.00;;;6.93;100.00
65800;BME280;52544;48.116;11.660;2024-01-25T07:54:57;96829.16;;;6.90;100.00
65800;BME280;52544;48.116;11.660;2024-01-25T07:57:23;96831.66;;;6.93;100.00
65800;BME280;52544;48.116;11.660;2024-01-25T07:59:48;96830.56;;;6.97;100.00
65800;BME280;52544;48.116;11.660;2024-01-25T08:02:13;96836.81;;;6.94;100.00
65800;BME280;52544;48.116;11.660;2024-01-25T08:04:39;96842.94;;;6.95;100.00
65800;BME280;52544;48.116;11.660;2024-01-25T08:07:04;96847.09;;;6.99;100.00
65800;BME280;52544;48.116;11.660;2024-01-25T08:09:30;96833.00;;;7.00;100.00
65800;BME280;52544;48.116;11.660;2024-01-25T08:11:55;96841.75;;;7.00;100.00
65800;BME280;52544;48.116;11.660;2024-01-25T08:14:21;96848.31;;;7.09;100.00
65800;BME280;52544;48.116;11.660;2024-01-25T08:16:46;96852.13;;;7.04;100.00
65800;BME280;52544;48.116;11.660;2024-01-25T08:19:12;96842.44;;;7.04;100.00
65800;BME280;52544;48.116;11.660;2024-01-25T08:21:37;96833.78;;;7.02;100.00
65800;BME280;52544;48.116;11.660;2024-01-25T08:24:03;96838.81;;;7.07;100.00
65800;BME280;52544;48.116;11.660;2024-01-25T08:26:29;96835.16;;;7.09;100.00
65800;BME280;52544;48.116;11.660;2024-01-25T08:28:54;96836.94;;;7.09;100.00
65800;BME280;52544;48.116;11.660;2024-01-25T08:31:20;96830.78;;;7.10;100.00
65800;BME280;52544;48.116;11.660;2024-01-25T08:33:46;96830.28;;;7.19;100.00
65800;BME280;52544;48.116;11.660;2024-01-25T08:36:18;96835.59;;;7.35;100.00
65800;BME280;52544;48.116;11.660;2024-01-25T08:38:44;96820.13;;;7.29;100.00
65800;BME280;52544;48.116;11.660;2024-01-25T08:41:09;96823.09;;;7.22;100.00
65800;BME280;52544;48.116;11.660;2024-01-25T08:43:36;96825.94;;;7.51;100.00
65800;BME280;52544;48.116;11.660;2024-01-25T08:46:01;96844.97;;;7.73;100.00
65800;BME280;52544;48.116;11.660;2024-01-25T08:48:27;96844.69;;;7.94;100.00
65800;BME280;52544;48.116;11.660;2024-01-25T08:50:52;96849.41;;;8.20;100.00
65800;BME280;52544;48.116;11.660;2024-01-25T08:53:20;96853.56;;;8.24;100.00
65800;BME280;52544;48.116;11.660;2024-01-25T08:55:48;96857.03;;;8.09;100.00
65800;BME280;52544;48.116;11.660;2024-01-25T08:58:13;96868.09;;;8.00;100.00
65800;BME280;52544;48.116;11.660;2024-01-25T09:00:39;96874.03;;;7.88;100.00
65800;BME280;52544;48.116;11.660;2024-01-25T09:03:04;96861.56;;;7.91;100.00
65800;BME280;52544;48.116;11.660;2024-01-25T09:05:29;96865.44;;;7.84;100.00
65800;BME280;52544;48.116;11.660;2024-01-25T09:07:56;96858.88;;;7.75;100.00
65800;BME280;52544;48.116;11.660;2024-01-25T09:10:22;96853.91;;;7.87;100.00
65800;BME280;52544;48.116;11.660;2024-01-25T09:12:47;96846.47;;;7.93;100.00
65800;BME280;52544;48.116;11.660;2024-01-25T09:15:12;96850.25;;;8.05;100.00
65800;BME280;52544;48.116;11.660;2024-01-25T09:17:38;96868.38;;;8.43;100.00
65800;BME280;52544;48.116;11.660;2024-01-25T09:20:05;96865.38;;;8.95;100.00
65800;BME280;52544;48.116;11.660;2024-01-25T09:22:31;96872.34;;;9.26;100.00
65800;BME280;52544;48.116;11.660;2024-01-25T09:24:56;96867.94;;;9.41;100.00
65800;BME280;52544;48.116;11.660;2024-01-25T09:27:21;96872.00;;;9.61;100.00
65800;BME280;52544;48.116;11.660;2024-01-25T09:29:47;96868.53;;;9.60;95.70
65800;BME280;52544;48.116;11.660;2024-01-25T09:32:12;96877.47;;;8.99;96.42
65800;BME280;52544;48.116;11.660;2024-01-25T09:34:38;96878.84;;;9.20;95.61
65800;BME280;52544;48.116;11.660;2024-01-25T09:37:04;96887.47;;;9.08;95.38
65800;BME280;52544;48.116;11.660;2024-01-25T09:39:31;96891.88;;;8.93;96.15
65800;BME280;52544;48.116;11.660;2024-01-25T09:41:57;96892.59;;;8.65;95.78
65800;BME280;52544;48.116;11.660;2024-01-25T09:44:22;96894.94;;;8.40;96.43
65800;BME280;52544;48.116;11.660;2024-01-25T09:46:48;96888.34;;;8.31;98.02
65800;BME280;52544;48.116;11.660;2024-01-25T09:49:13;96889.91;;;8.51;97.73
65800;BME280;52544;48.116;11.660;2024-01-25T09:51:40;96897.00;;;8.96;98.55
65800;BME280;52544;48.116;11.660;2024-01-25T09:54:07;96899.69;;;8.95;95.25
65800;BME280;52544;48.116;11.660;2024-01-25T09:56:34;96902.91;;;8.70;95.59
65800;BME280;52544;48.116;11.660;2024-01-25T09:58:59;96894.94;;;9.01;93.06
65800;BME280;52544;48.116;11.660;2024-01-25T10:01:26;96901.47;;;9.10;89.20
65800;BME280;52544;48.116;11.660;2024-01-25T10:03:52;96908.31;;;9.43;87.48
65800;BME280;52544;48.116;11.660;2024-01-25T10:06:17;96908.34;;;9.71;85.35
65800;BME280;52544;48.116;11.660;2024-01-25T10:08:44;96907.34;;;10.02;81.18
65800;BME280;52544;48.116;11.660;2024-01-25T10:11:10;96909.78;;;9.91;79.11
65800;BME280;52544;48.116;11.660;2024-01-25T10:13:46;96902.41;;;9.96;79.27
65800;BME280;52544;48.116;11.660;2024-01-25T10:16:16;96887.81;;;10.46;77.47
65800;BME280;52544;48.116;11.660;2024-01-25T10:18:44;96898.22;;;10.21;76.68
65800;BME280;52544;48.116;11.660;2024-01-25T10:21:13;96887.53;;;10.22;76.46
65800;BME280;52544;48.116;11.660;2024-01-25T10:23:39;96885.28;;;10.45;77.04
65800;BME280;52544;48.116;11.660;2024-01-25T10:26:05;96886.63;;;9.81;80.47
65800;BME280;52544;48.116;11.660;2024-01-25T10:28:30;96887.00;;;9.46;83.79
65800;BME280;52544;48.116;11.660;2024-01-25T10:31:00;96878.44;;;9.12;81.33
65800;BME280;52544;48.116;11.660;2024-01-25T10:33:27;96867.38;;;9.50;79.67
65800;BME280;52544;48.116;11.660;2024-01-25T10:35:54;96871.84;;;9.05;81.64
65800;BME280;52544;48.116;11.660;2024-01-25T10:38:21;96871.03;;;8.89;83.71
65800;BME280;52544;48.116;11.660;2024-01-25T10:40:47;96870.56;;;9.26;83.71
65800;BME280;52544;48.116;11.660;2024-01-25T10:43:12;96860.59;;;9.01;82.58
65800;BME280;52544;48.116;11.660;2024-01-25T10:45:38;96862.03;;;8.77;84.22
65800;BME280;52544;48.116;11.660;2024-01-25T10:48:04;96866.09;;;8.83;85.73
65800;BME280;52544;48.116;11.660;2024-01-25T10:50:30;96864.66;;;8.77;86.75
65800;BME280;52544;48.116;11.660;2024-01-25T10:52:56;96863.81;;;8.76;86.13
65800;BME280;52544;48.116;11.660;2024-01-25T10:55:22;96863.16;;;8.57;86.85
65800;BME280;52544;48.116;11.660;2024-01-25T10:57:48;96868.53;;;8.56;88.50
65800;BME280;52544;48.116;11.660;2024-01-25T11:00:15;96863.09;;;8.59;89.91
65800;BME280;52544;48.116;11.660;2024-01-25T11:02:41;96860.63;;;8.56;91.94
65800;BME280;52544;48.116;11.660;2024-01-25T11:05:11;96846.56;;;8.71;90.91
65800;BME280;52544;48.116;11.660;2024-01-25T11:07:41;96844.66;;;9.17;87.72
65800;BME280;52544;48.116;11.660;2024-01-25T11:10:12;96834.53;;;9.83;84.84
65800;BME280;52544;48.116;11.660;2024-01-25T11:13:01;96816.75;;;9.99;83.07
65800;BME280;52544;48.116;11.660;2024-01-25T11:15:34;96808.72;;;10.00;82.10
65800;BME280;52544;48.116;11.660;2024-01-25T11:18:01;96812.81;;;9.77;82.06
65800;BME280;52544;48.116;11.660;2024-01-25T11:20:28;96807.34;;;9.66;79.87
65800;BME280;52544;48.116;11.660;2024-01-25T11:22:58;96808.56;;;9.75;79.79
65800;BME280;52544;48.116;11.660;2024-01-25T11:25:32;96808.94;;;9.55;79.36
65800;BME280;52544;48.116;11.660;2024-01-25T11:27:58;96802.63;;;9.29;82.14
65800;BME280;52544;48.116;11.660;2024-01-25T11:30:29;96809.81;;;9.41;81.24
65800;BME280;52544;48.116;11.660;2024-01-25T11:32:55;96802.41;;;9.17;84.20
65800;BME280;52544;48.116;11.660;2024-01-25T11:35:21;96799.41;;;9.38;85.04
65800;BME280;52544;48.116;11.660;2024-01-25T11:37:48;96801.28;;;9.79;83.76
65800;BME280;52544;48.116;11.660;2024-01-25T11:40:14;96794.69;;;9.86;83.15
65800;BME280;52544;48.116;11.660;2024-01-25T11:42:43;96796.66;;;9.68;83.23
65800;BME280;52544;48.116;11.660;2024-01-25T11:45:10;96803.94;;;9.50;85.06
65800;BME280;52544;48.116;11.660;2024-01-25T11:47:37;96812.06;;;9.61;85.07
65800;BME280;52544;48.116;11.660;2024-01-25T11:50:04;96793.53;;;9.75;82.14
65800;BME280;52544;48.116;11.660;2024-01-25T11:52:30;96787.78;;;10.10;80.18
65800;BME280;52544;48.116;11.660;2024-01-25T11:55:05;96783.22;;;9.99;79.20
65800;BME280;52544;48.116;11.660;2024-01-25T11:57:32;96780.88;;;9.81;77.50
65800;BME280;52544;48.116;11.660;2024-01-25T11:59:58;96773.13;;;9.92;78.42
65800;BME280;52544;48.116;11.660;2024-01-25T12:02:23;96772.63;;;9.99;77.45
65800;BME280;52544;48.116;11.660;2024-01-25T12:04:49;96780.66;;;9.98;77.61
65800;BME280;52544;48.116;11.660;2024-01-25T12:07:15;96776.59;;;9.92;78.70
65800;BME280;52544;48.116;11.660;2024-01-25T12:09:41;96774.41;;;9.58;80.54
65800;BME280;52544;48.116;11.660;2024-01-25T12:12:08;96778.75;;;9.44;82.33
65800;BME280;52544;48.116;11.660;2024-01-25T12:14:34;96779.59;;;9.45;82.85
65800;BME280;52544;48.116;11.660;2024-01-25T12:17:00;96771.09;;;9.54;82.91
65800;BME280;52544;48.116;11.660;2024-01-25T12:19:28;96771.88;;;9.27;80.37
65800;BME280;52544;48.116;11.660;2024-01-25T12:21:55;96762.72;;;9.19;80.88
65800;BME280;52544;48.116;11.660;2024-01-25T12:24:21;96759.13;;;9.20;81.42
65800;BME280;52544;48.116;11.660;2024-01-25T12:26:47;96765.06;;;9.23;81.32
65800;BME280;52544;48.116;11.660;2024-01-25T12:29:12;96766.00;;;9.08;81.50
65800;BME280;52544;48.116;11.660;2024-01-25T12:31:38;96761.09;;;9.02;82.27
65800;BME280;52544;48.116;11.660;2024-01-25T12:34:13;96765.25;;;9.06;83.14
65800;BME280;52544;48.116;11.660;2024-01-25T12:36:38;96765.25;;;9.06;83.55
65800;BME280;52544;48.116;11.660;2024-01-25T12:39:04;96760.94;;;9.05;84.77
65800;BME280;52544;48.116;11.660;2024-01-25T12:41:29;96758.47;;;9.16;83.22
65800;BME280;52544;48.116;11.660;2024-01-25T12:43:55;96752.13;;;9.33;80.95
65800;BME280;52544;48.116;11.660;2024-01-25T12:46:20;96756.00;;;9.56;80.72